Time;durP1;ratioP1;P1;durP2;ratioP2;P2;SDS_P1;SDS_P2;PMS_P1;PMS_P2;Temp;Humidity;BMP_temperature;BMP_pressure;BME280_temperature;BME280_humidity;BME280_pressure;Samples;Min_cycle;Max_cycle;Signal;HPM_P1;HPM_P2
2022/12/14 08:49:58;;;;;;;40.90;18.55;;;;;;;-8.07;65.95;100052.63;6111814;22;21356;31
2022/12/14 08:52:32;;;;;;;46.45;18.35;;;;;;;-8.06;65.76;100049.09;6097298;23;20022;-71
2022/12/14 08:54:59;;;;;;;50.55;20.50;;;;;;;-7.91;65.83;100046.84;6097898;23;20018;-71
2022/12/14 08:57:26;;;;;;;45.67;21.27;;;;;;;-7.88;64.97;100044.97;6097122;23;20018;-72
2022/12/14 08:59:54;;;;;;;47.88;19.98;;;;;;;-7.66;64.96;100038.91;6083543;23;20728;-71
2022/12/14 09:02:28;;;;;;;49.67;20.63;;;;;;;-7.68;64.95;100046.78;6087599;23;20049;-72
2022/12/14 09:04:56;;;;;;;50.65;19.75;;;;;;;-7.79;65.53;100040.31;6098210;23;20050;-71
2022/12/14 09:07:23;;;;;;;37.47;17.30;;;;;;;-7.99;65.25;100036.72;6089608;23;20022;-71
2022/12/14 09:09:52;;;;;;;43.20;18.92;;;;;;;-7.97;66.17;100042.72;6117424;23;20018;-71
2022/12/14 09:12:22;;;;;;;46.90;18.90;;;;;;;-7.62;65.53;100036.13;6097289;23;20046;-72
2022/12/14 09:15:02;;;;;;;50.92;19.83;;;;;;;-7.47;64.88;100049.41;6097877;23;20025;-71
2022/12/14 09:17:58;;;;;;;49.67;20.00;;;;;;;-7.50;64.93;100041.72;6095993;23;20093;-71
2022/12/14 09:20:28;;;;;;;104.80;22.90;;;;;;;-7.31;65.01;100037.47;6079830;23;20463;-72
2022/12/14 09:22:55;;;;;;;127.85;26.42;;;;;;;-7.55;65.03;100047.13;6093848;23;20030;-71
2022/12/14 09:25:22;;;;;;;61.33;21.60;;;;;;;-7.55;65.08;100035.88;6099823;23;20412;-71
2022/12/14 09:27:52;;;;;;;78.60;23.20;;;;;;;-7.37;64.37;100024.69;6101833;23;20451;-72
2022/12/14 09:30:45;;;;;;;151.25;25.58;;;;;;;-7.17;64.09;100016.88;6101606;23;20027;-72
2022/12/14 09:33:12;;;;;;;40.88;18.77;;;;;;;-7.45;64.15;100016.34;6102084;23;20045;-71
2022/12/14 09:35:39;;;;;;;39.95;18.92;;;;;;;-7.28;64.17;100016.50;6103076;23;20019;-72
2022/12/14 09:38:11;;;;;;;45.53;19.42;;;;;;;-7.06;63.83;100012.97;6103056;23;20026;-72
2022/12/14 09:40:45;;;;;;;45.70;19.15;;;;;;;-7.05;63.82;100006.84;6058956;23;20101;-72
2022/12/14 09:43:27;;;;;;;41.58;17.88;;;;;;;-6.70;62.89;100000.94;6113878;23;20019;-72
2022/12/14 09:46:03;;;;;;;43.42;18.77;;;;;;;-6.55;62.73;99991.59;6105721;23;20026;-72
2022/12/14 09:48:52;;;;;;;43.00;19.55;;;;;;;-6.40;62.33;99990.88;6103248;23;20384;-72
2022/12/14 09:51:35;;;;;;;41.60;19.02;;;;;;;-6.25;62.17;99980.63;6123484;23;20037;-72
2022/12/14 09:54:11;;;;;;;39.50;17.02;;;;;;;-6.17;61.64;99982.00;6121329;23;20037;-72
2022/12/14 09:57:11;;;;;;;43.00;17.70;;;;;;;-6.15;61.47;99979.28;6130845;23;20301;-72
2022/12/14 09:59:39;;;;;;;45.40;18.15;;;;;;;-6.03;61.48;99980.50;6127995;23;20018;-72
2022/12/14 10:02:30;;;;;;;45.92;18.73;;;;;;;-5.95;60.90;99980.97;6131279;23;20026;-72
2022/12/14 10:05:10;;;;;;;;;;;;;;;-6.21;61.70;99979.59;6131576;23;20060;-72
2022/12/14 10:08:08;;;;;;;37.35;17.42;;;;;;;-5.90;61.14;99973.78;6133040;23;19923;-72
2022/12/14 10:10:48;;;;;;;36.35;18.80;;;;;;;-5.86;60.92;99966.63;6111887;23;20565;-72
2022/12/14 10:13:36;;;;;;;47.00;18.50;;;;;;;-5.72;60.02;99959.81;6132612;23;20526;-72
2022/12/14 10:16:53;;;;;;;36.65;17.15;;;;;;;-5.40;59.75;99961.75;6123237;23;20022;-72
2022/12/14 10:20:10;;;;;;;38.58;17.08;;;;;;;-5.32;58.95;99963.03;6118218;23;20080;-72
2022/12/14 10:23:04;;;;;;;42.10;18.33;;;;;;;-5.26;58.92;99959.28;5997522;23;20031;-72
2022/12/14 10:26:15;;;;;;;35.38;17.42;;;;;;;-5.10;58.73;99954.13;5935955;24;20029;-72
2022/12/14 10:28:56;;;;;;;37.45;17.90;;;;;;;-5.03;58.39;99953.72;5937212;24;20044;-72
2022/12/14 10:31:54;;;;;;;33.55;17.67;;;;;;;-5.00;58.16;99950.09;5925659;24;21906;-72
2022/12/14 10:34:50;;;;;;;37.10;18.30;;;;;;;-5.35;58.26;99944.91;5925668;24;20044;-72
2022/12/14 10:38:14;;;;;;;36.40;17.42;;;;;;;-5.14;58.50;99931.63;5918825;24;20033;-73
2022/12/14 10:45:34;;;;;;;41.92;17.48;;;;;;;-4.91;58.31;99926.03;6011827;23;20039;-72
2022/12/14 10:48:36;;;;;;;38.95;15.98;;;;;;;-4.88;58.12;99923.28;6104896;23;20038;-73
2022/12/14 10:51:18;;;;;;;34.88;16.33;;;;;;;-5.41;59.15;99924.31;6142425;23;20018;-73
2022/12/14 10:54:39;;;;;;;36.65;16.98;;;;;;;-5.06;58.61;99921.63;6123070;23;20356;-73
2022/12/14 10:57:20;;;;;;;37.72;17.13;;;;;;;-5.10;58.65;99927.97;6118329;23;20057;-73
2022/12/14 10:59:50;;;;;;;37.40;16.95;;;;;;;-5.23;58.78;99918.13;6125011;23;20091;-73
2022/12/14 11:06:26;;;;;;;38.00;17.48;;;;;;;-5.21;59.39;99911.06;6056380;23;20093;-72
2022/12/14 11:10:15;;;;;;;39.45;17.15;;;;;;;-5.12;59.21;99893.19;6075949;23;20025;-73
2022/12/14 11:13:12;;;;;;;39.28;17.08;;;;;;;-4.96;59.08;99886.22;6027025;23;20086;-73
2022/12/14 11:16:18;;;;;;;38.63;17.38;;;;;;;-4.49;58.19;99882.78;6074767;23;20022;-72
2022/12/14 11:19:22;;;;;;;35.22;17.60;;;;;;;-4.35;57.33;99872.38;6029589;23;20062;-73
2022/12/14 11:22:24;;;;;;;35.00;15.93;;;;;;;-4.24;57.21;99877.03;6065379;23;20027;-73
2022/12/14 11:25:49;;;;;;;33.88;16.90;;;;;;;-3.70;55.70;99876.56;6050930;23;20019;-73
2022/12/14 11:32:30;;;;;;;32.88;16.33;;;;;;;-3.85;55.83;99873.06;5964037;24;20085;-73
2022/12/14 11:35:57;;;;;;;;;;;;;;;;;;;;;
2022/12/14 11:38:56;;;;;;;32.80;16.65;;;;;;;-4.19;56.58;99875.00;5824424;24;20037;-73
2022/12/14 11:41:24;;;;;;;33.15;16.55;;;;;;;-3.88;56.52;99866.22;5823192;24;20026;-73
2022/12/14 11:44:21;;;;;;;35.30;17.85;;;;;;;-3.85;55.92;99873.91;5836869;24;20105;-73
2022/12/14 11:47:11;;;;;;;36.20;16.40;;;;;;;-4.35;57.20;99867.16;5832781;24;20029;-72
2022/12/14 11:50:26;;;;;;;34.63;16.90;;;;;;;-4.21;57.11;99870.75;5804839;24;20036;-73
2022/12/14 11:53:23;;;;;;;33.03;16.98;;;;;;;-4.30;57.38;99869.53;5838923;24;20097;-73
2022/12/14 11:56:16;;;;;;;33.83;17.30;;;;;;;-4.03;56.79;99872.34;5835758;24;20094;-73
2022/12/14 11:59:18;;;;;;;38.45;17.00;;;;;;;-4.19;57.28;99866.28;5784888;24;20019;-73
2022/12/14 12:02:20;;;;;;;32.42;16.58;;;;;;;-4.41;57.67;99862.28;5830018;24;20067;-73
2022/12/14 12:05:17;;;;;;;36.92;15.90;;;;;;;-4.46;57.83;99861.66;5809662;24;20045;-73
2022/12/14 12:11:17;;;;;;;32.70;17.30;;;;;;;-4.16;57.58;99853.03;5965511;23;20024;-73
2022/12/14 12:13:59;;;;;;;34.90;17.25;;;;;;;-3.95;57.00;99851.78;5991870;23;20024;-73
2022/12/14 12:17:06;;;;;;;35.67;16.40;;;;;;;-4.21;57.45;99850.66;6066434;23;20022;-73
2022/12/14 12:20:10;;;;;;;40.38;16.92;;;;;;;-4.11;57.18;99848.34;6092270;23;20032;-73
2022/12/14 12:22:45;;;;;;;41.45;18.33;;;;;;;-3.97;56.81;99847.56;6057489;23;20055;-73
2022/12/14 12:25:56;;;;;;;36.38;18.63;;;;;;;-3.87;57.13;99838.22;6094555;23;20019;-73
2022/12/14 12:28:55;;;;;;;35.55;18.10;;;;;;;-4.18;57.82;99844.41;6093633;23;20403;-73
2022/12/14 12:32:05;;;;;;;45.30;18.55;;;;;;;-3.66;56.82;99841.38;6083625;23;20029;-73
2022/12/14 12:34:51;;;;;;;37.53;18.25;;;;;;;-3.62;56.02;99840.25;6094123;23;20394;-73
2022/12/14 12:38:09;;;;;;;44.70;17.58;;;;;;;-3.68;56.40;99827.53;6069059;23;20026;-73
2022/12/14 12:41:04;;;;;;;35.00;16.63;;;;;;;-3.72;56.67;99828.63;6053024;23;20050;-73
2022/12/14 12:43:45;;;;;;;35.10;16.98;;;;;;;-3.78;56.46;99821.97;6093014;23;20027;-73
2022/12/14 12:46:21;;;;;;;33.20;17.25;;;;;;;-4.12;57.51;99825.72;6077392;23;20022;-73
2022/12/14 12:48:59;;;;;;;42.20;18.13;;;;;;;-4.17;57.87;99822.50;6096392;23;20058;-73
2022/12/14 12:52:05;;;;;;;36.10;17.33;;;;;;;-4.42;58.54;99823.06;6079725;23;20094;-73
2022/12/14 12:55:15;;;;;;;34.05;17.23;;;;;;;-4.73;59.63;99833.50;6070800;23;20018;-72
2022/12/14 12:57:49;;;;;;;37.70;17.42;;;;;;;-4.70;60.11;99823.78;6021695;23;20036;-73
2022/12/14 13:00:54;;;;;;;41.83;18.48;;;;;;;-4.49;59.31;99819.94;6056663;23;20023;-73
2022/12/14 13:03:36;;;;;;;42.88;18.88;;;;;;;-4.79;59.90;99812.91;6078653;23;20027;-73
2022/12/14 13:06:42;;;;;;;;;;;;;;;-4.86;60.13;99819.41;6074584;23;20042;-72
2022/12/14 13:09:38;;;;;;;36.90;16.63;;;;;;;-4.94;60.28;99821.56;6081061;23;20246;-72
2022/12/14 13:12:13;;;;;;;45.92;17.00;;;;;;;-5.11;60.50;99812.06;6080376;23;20019;-73
2022/12/14 13:14:49;;;;;;;39.88;17.50;;;;;;;-5.12;61.02;99814.72;6071142;23;20101;-73
2022/12/14 13:18:12;;;;;;;41.83;17.42;;;;;;;-5.36;61.75;99811.66;6049505;23;20022;-73
2022/12/14 13:21:17;;;;;;;39.93;17.13;;;;;;;-5.50;62.16;99812.38;6081005;23;20050;-73
2022/12/14 13:23:47;;;;;;;36.28;18.33;;;;;;;-5.42;61.65;99812.84;6068172;23;20346;-73
2022/12/14 13:26:49;;;;;;;36.80;18.05;;;;;;;-5.24;61.45;99813.63;6080098;23;20025;-72
2022/12/14 13:29:57;;;;;;;35.80;17.00;;;;;;;-5.34;61.70;99796.75;6082061;23;20022;-72
2022/12/14 13:33:04;;;;;;;42.63;17.40;;;;;;;-5.45;61.63;99792.09;6080639;23;20034;-73
2022/12/14 13:35:43;;;;;;;34.95;17.98;;;;;;;-5.33;61.63;99799.25;6080019;23;20027;-72
2022/12/14 13:38:50;;;;;;;39.15;19.20;;;;;;;-5.60;62.35;99793.72;6080161;23;20017;-73
2022/12/14 13:41:33;;;;;;;36.70;18.02;;;;;;;-5.63;62.84;99799.09;6050258;23;20015;-73
2022/12/14 13:44:18;;;;;;;43.35;19.27;;;;;;;-5.49;62.45;99794.03;6048946;23;20018;-73
2022/12/14 13:47:08;;;;;;;37.67;18.17;;;;;;;-5.44;61.88;99796.38;6078051;23;20106;-73
2022/12/14 13:49:36;;;;;;;41.60;18.40;;;;;;;-5.53;61.89;99799.47;6100979;23;20025;-72
2022/12/14 13:52:36;;;;;;;43.35;17.88;;;;;;;-5.57;62.30;99797.94;6106925;23;20022;-72
2022/12/14 13:55:48;;;;;;;34.47;16.70;;;;;;;-6.04;63.40;99793.41;6087063;23;20043;-72
2022/12/14 13:58:35;;;;;;;38.22;17.30;;;;;;;-5.92;63.78;99792.78;6075929;23;20034;-72
2022/12/14 14:01:50;;;;;;;38.90;17.90;;;;;;;-5.89;63.65;99781.34;6068804;23;20022;-72
2022/12/14 14:04:30;;;;;;;37.43;17.67;;;;;;;-5.88;63.47;99773.41;6065593;23;20034;-73
2022/12/14 14:07:21;;;;;;;38.83;19.05;;;;;;;-6.03;64.13;99780.25;6102768;23;20284;-72
2022/12/14 14:09:53;;;;;;;41.55;17.52;;;;;;;-6.21;64.70;99779.44;6107019;23;20023;-72
2022/12/14 14:12:34;;;;;;;45.83;17.67;;;;;;;-6.14;64.61;99776.53;6101953;23;20026;-72
2022/12/14 14:15:06;;;;;;;44.35;18.92;;;;;;;-6.15;64.45;99773.03;6088519;23;20029;-72
2022/12/14 14:17:43;;;;;;;41.20;17.55;;;;;;;-6.27;65.10;99766.69;6079169;23;20029;-72
2022/12/14 14:20:46;;;;;;;38.08;18.65;;;;;;;-6.40;65.17;99771.66;6076421;23;20030;-72
2022/12/14 14:23:16;;;;;;;43.05;17.58;;;;;;;-6.40;64.95;99774.25;6080477;23;20097;-72
2022/12/14 14:25:53;;;;;;;41.08;18.58;;;;;;;-6.54;65.14;99762.81;6082955;23;20086;-72
2022/12/14 14:28:29;;;;;;;42.45;18.73;;;;;;;-6.48;65.14;99755.53;6064716;23;20061;-72
2022/12/14 14:30:59;;;;;;;39.08;18.85;;;;;;;-6.31;64.89;99748.66;6079501;23;20029;-72
2022/12/14 14:33:37;;;;;;;43.88;18.50;;;;;;;-6.36;65.25;99743.63;6084680;23;20030;-72
2022/12/14 14:36:23;;;;;;;40.50;18.52;;;;;;;-6.47;65.72;99735.50;6082100;23;20027;-72
2022/12/14 14:38:52;;;;;;;45.80;19.98;;;;;;;-6.41;65.62;99738.66;6082201;23;20025;-72
2022/12/14 14:41:27;;;;;;;44.28;18.85;;;;;;;-6.52;66.05;99740.97;6081589;23;20133;-72
2022/12/14 14:43:58;;;;;;;54.95;20.10;;;;;;;-6.61;65.86;99736.19;6057725;23;20019;-72
2022/12/14 14:46:51;;;;;;;;;;;;;;;-6.66;65.93;99732.97;6075650;23;20023;-72
2022/12/14 14:49:23;;;;;;;40.92;17.48;;;;;;;-6.73;66.10;99742.03;6098930;23;19940;-73
2022/12/14 14:51:50;;;;;;;44.25;19.50;;;;;;;-6.72;66.16;99741.94;6099091;23;20393;-72
2022/12/14 14:54:19;;;;;;;41.05;18.40;;;;;;;-6.72;66.19;99741.94;6110554;23;20059;-72
2022/12/14 14:57:31;;;;;;;45.15;19.90;;;;;;;-6.74;65.76;99725.50;6087230;23;20022;-72
2022/12/14 15:00:03;;;;;;;42.45;19.45;;;;;;;-6.66;65.82;99738.19;6109674;23;20034;-72
2022/12/14 15:02:36;;;;;;;40.42;18.42;;;;;;;-6.83;65.59;99738.16;6106674;23;20022;-72
2022/12/14 15:05:04;;;;;;;43.00;18.98;;;;;;;-6.77;65.66;99740.47;6094213;23;20057;-72
2022/12/14 15:07:54;;;;;;;45.95;19.40;;;;;;;-6.80;65.77;99740.63;6078861;23;20045;-72
2022/12/14 15:10:29;;;;;;;51.55;19.65;;;;;;;-6.63;65.37;99728.44;6086422;23;20109;-72
2022/12/14 15:13:21;;;;;;;48.65;19.92;;;;;;;-6.75;65.50;99734.25;6079409;23;20018;-72
2022/12/14 15:15:52;;;;;;;49.15;21.15;;;;;;;-6.75;65.26;99739.47;6079678;23;20088;-72
2022/12/14 15:18:29;;;;;;;51.28;21.58;;;;;;;-6.84;64.84;99734.72;6094509;23;20031;-72
2022/12/14 15:21:06;;;;;;;45.28;20.20;;;;;;;-6.52;64.58;99727.91;6093575;23;20026;-72
2022/12/14 15:23:49;;;;;;;49.58;21.85;;;;;;;-6.51;64.16;99724.38;6093882;23;20122;-73
2022/12/14 15:26:24;;;;;;;50.70;21.75;;;;;;;-6.63;64.56;99728.44;6092502;23;20086;-72
2022/12/14 15:28:57;;;;;;;46.55;21.05;;;;;;;-6.67;63.75;99724.31;6093861;23;20420;-72
2022/12/14 15:31:41;;;;;;;56.95;22.30;;;;;;;-6.71;63.98;99727.97;6094334;23;20046;-72
2022/12/14 15:34:17;;;;;;;44.03;20.35;;;;;;;-6.76;64.40;99736.94;6091362;23;20018;-73
2022/12/14 15:36:48;;;;;;;51.78;21.83;;;;;;;-6.82;64.41;99740.69;6092283;23;20364;-72
2022/12/14 15:39:31;;;;;;;50.40;21.02;;;;;;;-6.84;64.25;99734.72;6094580;23;20022;-72
2022/12/14 15:42:09;;;;;;;50.60;23.13;;;;;;;-6.88;64.35;99740.97;6095026;23;20078;-72
2022/12/14 15:44:36;;;;;;;53.42;22.38;;;;;;;-6.89;64.40;99742.75;6092655;23;20333;-73
2022/12/14 15:47:19;;;;;;;49.67;21.75;;;;;;;-6.89;64.64;99747.13;6090027;23;20021;-72
2022/12/14 15:49:46;;;;;;;49.65;22.77;;;;;;;-6.80;64.87;99740.63;6094923;23;20136;-72
2022/12/14 15:52:13;;;;;;;54.30;23.83;;;;;;;-6.77;64.53;99736.09;6088194;23;20038;-72
2022/12/14 15:54:41;;;;;;;56.80;25.88;;;;;;;-6.88;64.44;99730.53;6070086;23;20097;-72
2022/12/14 15:57:20;;;;;;;59.92;23.02;;;;;;;-6.87;64.70;99730.50;6094156;23;20022;-72
2022/12/14 15:59:56;;;;;;;60.20;24.63;;;;;;;-6.87;64.34;99732.25;6094691;23;20360;-72
2022/12/14 16:02:30;;;;;;;63.00;25.52;;;;;;;-6.76;64.19;99731.72;6095790;23;20030;-72
2022/12/14 16:05:01;;;;;;;57.53;24.20;;;;;;;-6.78;64.18;99737.00;6079784;23;20050;-72
2022/12/14 16:07:39;;;;;;;55.70;24.73;;;;;;;-7.04;65.03;99733.06;6093556;23;20019;-72
2022/12/14 16:10:27;;;;;;;54.85;23.13;;;;;;;-7.07;65.26;99733.19;6096866;23;20034;-72
2022/12/14 16:13:05;;;;;;;58.25;25.52;;;;;;;-7.07;65.05;99729.75;6095710;23;20018;-72
2022/12/14 16:15:33;;;;;;;61.55;25.08;;;;;;;-7.04;64.65;99727.84;6095556;23;20023;-72
2022/12/14 16:18:01;;;;;;;61.40;25.60;;;;;;;-7.05;65.00;99725.28;6096670;23;20101;-72
2022/12/14 16:20:32;;;;;;;56.85;25.60;;;;;;;-6.91;64.62;99722.88;6095677;23;20018;-72
2022/12/14 16:23:28;;;;;;;60.47;24.73;;;;;;;-6.92;64.70;99715.97;6094590;23;20078;-72
2022/12/14 16:25:58;;;;;;;56.17;25.17;;;;;;;-6.87;64.19;99722.66;6078495;23;20058;-72
2022/12/14 16:28:38;;;;;;;58.10;24.77;;;;;;;-6.86;64.35;99720.91;6081921;23;20023;-72
2022/12/14 16:31:16;;;;;;;58.88;25.17;;;;;;;-6.84;64.24;99719.06;6092634;23;20022;-72
2022/12/14 16:33:44;;;;;;;61.85;25.60;;;;;;;-6.87;64.27;99716.59;6094998;23;20018;-72
2022/12/14 16:36:26;;;;;;;61.47;24.27;;;;;;;-6.82;64.25;99713.78;6079636;23;20014;-72
2022/12/14 16:38:54;;;;;;;60.15;25.33;;;;;;;-6.83;64.08;99719.91;6093791;23;20113;-72
2022/12/14 16:41:57;;;;;;;61.70;25.40;;;;;;;-6.93;64.20;99722.13;6096535;23;20416;-72
2022/12/14 16:44:36;;;;;;;67.47;26.55;;;;;;;-6.97;64.23;99725.78;6067954;23;20027;-72
2022/12/14 16:47:13;;;;;;;65.50;25.85;;;;;;;-6.87;64.38;99730.50;6095493;23;20018;-72
2022/12/14 16:49:53;;;;;;;69.07;26.67;;;;;;;-6.96;64.68;99720.50;6093936;23;20026;-72
2022/12/14 16:52:33;;;;;;;66.27;26.80;;;;;;;-6.88;63.92;99718.34;6094973;23;20022;-72
2022/12/14 16:55:08;;;;;;;72.60;27.45;;;;;;;-6.85;64.01;99726.94;6091217;23;20078;-72
2022/12/14 16:57:40;;;;;;;61.72;26.52;;;;;;;-6.79;64.30;99732.72;6093778;23;20474;-72
2022/12/14 17:00:20;;;;;;;64.97;27.02;;;;;;;-7.03;64.51;99728.69;6096681;23;20015;-72
2022/12/14 17:03:00;;;;;;;60.50;26.80;;;;;;;-6.94;64.41;99734.31;6095924;23;20363;-72
2022/12/14 17:05:57;;;;;;;57.60;25.90;;;;;;;-7.13;64.76;99728.28;6078650;23;20110;-72
2022/12/14 17:08:32;;;;;;;63.30;26.02;;;;;;;-7.13;65.03;99725.66;6094863;23;20320;-72
2022/12/14 17:11:01;;;;;;;72.65;27.08;;;;;;;-7.11;64.58;99731.66;6056525;23;20023;-72
2022/12/14 17:13:47;;;;;;;68.65;28.75;;;;;;;-7.17;65.08;99730.19;6094815;23;20479;-72
2022/12/14 17:16:22;;;;;;;70.05;27.52;;;;;;;-7.19;65.22;99729.38;6082293;23;20014;-72
2022/12/14 17:18:52;;;;;;;66.47;26.17;;;;;;;-7.07;64.58;99729.75;6095062;23;20498;-72
2022/12/14 17:21:26;;;;;;;68.35;26.90;;;;;;;-7.18;65.01;99719.84;6096762;23;20030;-72
2022/12/14 17:23:54;;;;;;;70.82;27.35;;;;;;;-7.18;65.04;99728.50;6083607;23;20014;-72
2022/12/14 17:26:31;;;;;;;66.00;27.58;;;;;;;-7.28;65.14;99729.84;6094974;23;20101;-72
2022/12/14 17:28:58;;;;;;;67.32;28.80;;;;;;;-7.26;65.74;99728.00;6094731;23;20022;-72
2022/12/14 17:31:26;;;;;;;70.57;29.63;;;;;;;-7.42;65.92;99732.25;6095062;23;20030;-72
2022/12/14 17:33:55;;;;;;;66.35;29.48;;;;;;;-7.24;65.69;99726.16;6091303;23;20019;-71
2022/12/14 17:36:22;;;;;;;75.45;30.98;;;;;;;-7.51;66.43;99725.69;6089911;23;20022;-72
2022/12/14 17:38:52;;;;;;;71.18;29.52;;;;;;;-7.57;66.50;99727.72;6082322;23;20097;-72
2022/12/14 17:41:24;;;;;;;72.57;31.17;;;;;;;-7.66;66.78;99727.22;6095543;23;20030;-72
2022/12/14 17:43:54;;;;;;;69.13;29.63;;;;;;;-7.76;67.35;99741.56;6094881;23;20022;-72
2022/12/14 17:46:24;;;;;;;70.43;31.85;;;;;;;-7.65;67.42;99736.72;6058414;23;20033;-72
2022/12/14 17:48:53;;;;;;;76.68;30.80;;;;;;;-7.60;67.18;99733.94;6096418;23;20041;-72
2022/12/14 17:51:25;;;;;;;78.60;32.83;;;;;;;-7.62;67.38;99725.31;6081573;23;20535;-72
2022/12/14 17:53:57;;;;;;;77.68;33.60;;;;;;;-7.54;67.18;99717.16;6073836;23;20376;-72
2022/12/14 17:56:24;;;;;;;79.85;33.15;;;;;;;-7.43;66.95;99722.72;6067282;23;20022;-72
2022/12/14 17:58:50;;;;;;;81.05;33.38;;;;;;;-7.54;67.21;99723.22;6074226;23;20042;-72
2022/12/14 18:01:22;;;;;;;83.22;33.65;;;;;;;-7.41;67.28;99724.34;6065725;23;20015;-72
2022/12/14 18:03:49;;;;;;;;;;;;;;;-7.43;67.33;99728.78;6064341;23;20019;-72
2022/12/14 18:06:35;;;;;;;77.07;32.63;;;;;;;-7.34;66.68;99727.50;6052228;23;19926;-72
2022/12/14 18:09:04;;;;;;;81.10;33.67;;;;;;;-7.41;66.83;99732.16;6082213;23;20389;-72
2022/12/14 18:11:31;;;;;;;83.63;33.42;;;;;;;-7.55;67.48;99733.72;6062495;23;20090;-72
2022/12/14 18:14:01;;;;;;;86.53;33.80;;;;;;;-7.38;67.06;99728.56;6075198;23;20344;-72
2022/12/14 18:16:28;;;;;;;89.55;33.15;;;;;;;-7.33;66.87;99729.19;6066954;23;20046;-72
2022/12/14 18:18:56;;;;;;;81.13;34.47;;;;;;;-7.45;67.31;99729.78;6074131;23;20026;-72
2022/12/14 18:21:28;;;;;;;81.63;34.83;;;;;;;-7.51;67.40;99725.69;6059839;23;20090;-72
2022/12/14 18:23:56;;;;;;;80.28;34.28;;;;;;;-7.44;67.29;99727.09;6065948;23;20387;-72
2022/12/14 18:26:26;;;;;;;67.60;25.70;;;;;;;-7.41;67.53;99723.50;6078501;23;20034;-72
2022/12/14 18:28:54;;;;;;;90.50;35.97;;;;;;;-7.36;66.93;99721.50;6066403;23;20364;-70
2022/12/14 18:31:25;;;;;;;84.57;33.67;;;;;;;-7.38;67.26;99718.16;6066346;23;20027;-69
2022/12/14 18:33:52;;;;;;;89.78;35.53;;;;;;;-7.40;67.03;99719.97;6066224;23;20019;-69
2022/12/14 18:36:20;;;;;;;85.63;34.95;;;;;;;-7.53;67.56;99721.44;6066936;23;20037;-69
2022/12/14 18:38:47;;;;;;;84.07;35.10;;;;;;;-7.55;67.66;99725.91;6065491;23;20034;-69
2022/12/14 18:41:17;;;;;;;82.47;35.33;;;;;;;-7.49;67.01;99730.84;6065865;23;20022;-69
2022/12/14 18:43:44;;;;;;;82.78;35.90;;;;;;;-7.53;67.87;99732.72;6067064;23;20029;-69
2022/12/14 18:46:11;;;;;;;88.30;36.17;;;;;;;-7.51;67.74;99738.69;6066091;23;20038;-69
2022/12/14 18:48:38;;;;;;;92.57;37.97;;;;;;;-7.47;67.53;99735.03;6066089;23;20078;-69
2022/12/14 18:51:05;;;;;;;87.20;37.00;;;;;;;-7.37;67.14;99728.50;6075167;23;20022;-70
2022/12/14 18:53:32;;;;;;;87.07;36.92;;;;;;;-7.54;67.87;99732.78;6095108;23;20029;-69
2022/12/14 18:56:01;;;;;;;88.82;36.63;;;;;;;-7.54;67.82;99732.78;6094684;23;20019;-69
2022/12/14 18:58:28;;;;;;;91.47;37.17;;;;;;;-7.50;67.97;99731.72;6093760;23;20018;-70
2022/12/14 19:00:57;;;;;;;100.20;37.15;;;;;;;-7.43;67.21;99731.41;6094685;23;20023;-70
2022/12/14 19:03:25;;;;;;;93.07;38.22;;;;;;;-7.38;67.17;99733.78;6089461;23;20026;-70
2022/12/14 19:06:02;;;;;;;86.00;36.80;;;;;;;-7.40;67.48;99733.00;6092610;23;20089;-69
2022/12/14 19:08:49;;;;;;;92.72;37.17;;;;;;;-7.46;67.55;99735.91;6094047;23;20455;-69
2022/12/14 19:11:18;;;;;;;85.95;35.60;;;;;;;-7.38;67.54;99739.84;6094611;23;20022;-69
2022/12/14 19:13:45;;;;;;;98.05;36.75;;;;;;;-7.38;67.27;99739.00;6094073;23;20026;-70
2022/12/14 19:16:12;;;;;;;102.60;38.92;;;;;;;-7.48;67.57;99727.31;6094094;23;20022;-69
2022/12/14 19:18:38;;;;;;;87.30;36.80;;;;;;;-7.42;67.30;99730.47;6094274;23;20420;-71
2022/12/14 19:21:05;;;;;;;87.45;36.35;;;;;;;-7.47;67.34;99740.25;6095531;23;20030;-69
2022/12/14 19:23:31;;;;;;;89.72;36.38;;;;;;;-7.41;67.32;99744.34;6094353;23;20023;-69
2022/12/14 19:26:00;;;;;;;96.10;38.22;;;;;;;-7.28;66.72;99748.06;6094720;23;20019;-69
2022/12/14 19:28:28;;;;;;;101.72;39.25;;;;;;;-7.36;66.88;99739.75;6094897;23;20395;-69
2022/12/14 19:31:00;;;;;;;95.72;38.97;;;;;;;-7.45;67.07;99745.41;6095105;23;20033;-69
2022/12/14 19:33:27;;;;;;;93.43;38.58;;;;;;;-7.44;66.91;99734.91;6095267;23;20400;-69
2022/12/14 19:35:54;;;;;;;90.05;38.58;;;;;;;-7.37;66.81;99740.69;6094693;23;20022;-70
2022/12/14 19:38:21;;;;;;;89.75;39.75;;;;;;;-7.42;66.77;99740.06;6094232;23;20032;-69
2022/12/14 19:41:05;;;;;;;89.45;38.63;;;;;;;-7.33;66.77;99742.22;6094908;23;20022;-69
2022/12/14 19:43:31;;;;;;;102.38;41.38;;;;;;;-7.63;67.04;99742.72;6093394;23;20018;-69
2022/12/14 19:45:59;;;;;;;97.28;41.05;;;;;;;-7.51;67.11;99738.69;6091594;23;20054;-69
2022/12/14 19:48:25;;;;;;;92.32;38.47;;;;;;;-7.43;66.56;99736.63;6094292;23;20042;-69
2022/12/14 19:50:52;;;;;;;89.63;37.13;;;;;;;-7.41;66.91;99749.56;6095112;23;20475;-69
2022/12/14 19:53:19;;;;;;;93.35;38.20;;;;;;;-7.33;66.53;99752.66;6094743;23;20367;-70
2022/12/14 19:55:52;;;;;;;101.97;40.80;;;;;;;-7.52;67.13;99747.44;6094395;23;20049;-68
2022/12/14 19:58:24;;;;;;;92.53;38.50;;;;;;;-7.48;66.95;99748.16;6094879;23;20054;-69
2022/12/14 20:00:50;;;;;;;96.10;39.70;;;;;;;-7.62;67.43;99754.81;6094201;23;20432;-69
2022/12/14 20:03:17;;;;;;;100.97;38.90;;;;;;;-7.66;67.61;99750.66;6094298;23;20023;-71
2022/12/14 20:05:51;;;;;;;94.68;38.33;;;;;;;-7.57;67.38;99757.22;6094012;23;20018;-70
2022/12/14 20:08:18;;;;;;;96.85;39.10;;;;;;;-7.69;67.53;99755.16;6093944;23;20041;-69
2022/12/14 20:10:45;;;;;;;94.88;40.03;;;;;;;-7.54;67.47;99757.06;6094516;23;20033;-69
2022/12/14 20:13:11;;;;;;;100.25;41.53;;;;;;;-7.63;67.60;99754.91;6094113;23;20022;-70
2022/12/14 20:15:38;;;;;;;106.00;39.85;;;;;;;-7.54;67.88;99759.69;6094753;23;20018;-68
2022/12/14 20:18:06;;;;;;;99.38;40.33;;;;;;;-7.37;67.29;99757.16;6095363;23;20428;-69
2022/12/14 20:20:33;;;;;;;107.75;40.88;;;;;;;-7.39;67.05;99752.94;6093734;23;20353;-69
2022/12/14 20:22:59;;;;;;;105.63;43.13;;;;;;;-7.49;67.36;99765.53;6093711;23;20023;-71
2022/12/14 20:25:26;;;;;;;103.55;44.15;;;;;;;-7.46;66.89;99761.97;6094742;23;20022;-69
2022/12/14 20:27:52;;;;;;;101.72;41.03;;;;;;;-7.44;67.06;99757.50;6092062;23;20018;-69
2022/12/14 20:30:19;;;;;;;101.90;40.78;;;;;;;-7.49;67.07;99757.72;6091352;23;20027;-69
2022/12/14 20:32:45;;;;;;;103.15;42.60;;;;;;;-7.43;67.01;99753.97;6093114;23;20023;-69
2022/12/14 20:35:17;;;;;;;100.68;41.30;;;;;;;-7.52;66.89;99759.63;6092803;23;20026;-69
2022/12/14 20:37:44;;;;;;;104.35;42.05;;;;;;;-7.45;67.14;99761.03;6092775;23;20052;-69
2022/12/14 20:40:12;;;;;;;102.97;42.53;;;;;;;-7.41;66.81;99759.97;6092638;23;20019;-70
2022/12/14 20:42:38;;;;;;;96.40;39.72;;;;;;;-7.42;66.60;99760.91;6092940;23;20029;-68
2022/12/14 20:45:05;;;;;;;107.78;43.30;;;;;;;-7.47;66.62;99755.88;6094345;23;20321;-69
2022/12/14 20:47:33;;;;;;;99.47;40.45;;;;;;;-7.44;66.64;99757.50;6095389;23;20037;-69
2022/12/14 20:49:59;;;;;;;93.22;38.53;;;;;;;-7.47;66.47;99749.81;6095110;23;20018;-69
2022/12/14 20:52:26;;;;;;;99.72;39.72;;;;;;;-7.51;66.96;99759.53;6092531;23;20037;-69
2022/12/14 20:54:53;;;;;;;92.35;38.83;;;;;;;-7.48;67.03;99756.81;6094316;23;20018;-68
2022/12/14 20:57:19;;;;;;;95.35;40.47;;;;;;;-7.51;67.05;99764.75;6094588;23;20027;-69
2022/12/14 20:59:45;;;;;;;91.43;38.88;;;;;;;-7.57;67.02;99761.56;6095686;23;20442;-69
2022/12/14 21:02:17;;;;;;;100.95;42.20;;;;;;;-7.62;67.46;99759.19;6096822;23;20424;-68
2022/12/14 21:04:43;;;;;;;93.57;38.97;;;;;;;-7.57;66.99;99762.41;6088997;23;20093;-70
2022/12/14 21:07:10;;;;;;;93.20;39.28;;;;;;;-7.57;67.13;99759.81;6095262;23;20022;-68
2022/12/14 21:09:36;;;;;;;102.20;40.97;;;;;;;-7.58;67.18;99758.13;6094914;23;20022;-68
2022/12/14 21:12:21;;;;;;;102.68;41.55;;;;;;;-7.59;67.04;99751.25;6094532;23;20527;-68
2022/12/14 21:14:53;;;;;;;98.72;40.17;;;;;;;-7.57;67.20;99761.56;6094735;23;20019;-68
2022/12/14 21:17:22;;;;;;;103.03;41.08;;;;;;;-7.55;67.44;99758.00;6093418;23;20465;-69
2022/12/14 21:19:48;;;;;;;107.47;41.92;;;;;;;-7.60;67.15;99768.63;6093964;23;20026;-69